createdAt,value
2022-08-03T00:00:18.449Z,61.89
2022-08-03T00:00:50.680Z,61.98
2022-08-03T00:01:22.623Z,61.79
2022-08-03T00:01:54.537Z,61.74
2022-08-03T00:02:26.546Z,61.72
2022-08-03T00:02:58.529Z,61.59
2022-08-03T00:03:30.599Z,61.91
2022-08-03T00:04:02.741Z,61.77
2022-08-03T00:04:34.710Z,61.74
2022-08-03T00:05:08.475Z,61.65
2022-08-03T00:05:40.524Z,61.72
2022-08-03T00:06:36.947Z,61.51
2022-08-03T00:07:09.289Z,61.36
2022-08-03T00:07:41.863Z,61.23
2022-08-03T00:08:13.813Z,61.15
2022-08-03T00:08:51.587Z,61.16
2022-08-03T00:09:23.495Z,61.23
2022-08-03T00:09:55.440Z,61.39
2022-08-03T00:10:27.470Z,61.31
2022-08-03T00:10:59.729Z,61.29
2022-08-03T00:11:31.661Z,61.30
2022-08-03T00:12:04.065Z,61.13
2022-08-03T00:12:36.501Z,60.96
2022-08-03T00:13:08.822Z,61.33
2022-08-03T00:13:41.740Z,61.35
2022-08-03T00:14:13.825Z,61.44
2022-08-03T00:14:45.819Z,61.50
2022-08-03T00:15:17.865Z,61.35
2022-08-03T00:15:49.891Z,61.18
2022-08-03T00:16:21.920Z,61.10
2022-08-03T00:16:55.189Z,61.52
2022-08-03T00:17:27.866Z,61.70
2022-08-03T00:17:59.811Z,61.76
2022-08-03T00:18:31.884Z,61.46
2022-08-03T00:19:04.411Z,61.31
2022-08-03T00:19:36.653Z,61.36
2022-08-03T00:20:08.983Z,61.39
2022-08-03T00:20:40.955Z,61.18
2022-08-03T00:21:12.919Z,61.31
2022-08-03T00:21:46.752Z,61.26
2022-08-03T00:22:18.865Z,61.17
2022-08-03T00:22:51.625Z,61.25
2022-08-03T00:23:23.635Z,61.18
2022-08-03T00:23:55.655Z,60.79
2022-08-03T00:24:27.760Z,60.65
2022-08-03T00:25:00.382Z,60.53
2022-08-03T00:25:33.500Z,60.76
2022-08-03T00:26:05.552Z,61.10
2022-08-03T00:26:37.935Z,61.20
2022-08-03T00:27:09.856Z,61.33
2022-08-03T00:27:41.798Z,61.46
2022-08-03T00:28:14.121Z,61.60
2022-08-03T00:28:47.705Z,61.44
2022-08-03T00:29:19.706Z,61.44
2022-08-03T00:29:59.450Z,61.43
2022-08-03T00:30:33.213Z,61.41
2022-08-03T00:31:05.175Z,61.50
2022-08-03T00:31:51.509Z,61.48
2022-08-03T00:32:24.983Z,61.74
2022-08-03T00:32:57.845Z,61.96
2022-08-03T00:33:59.934Z,61.91
2022-08-03T00:34:29.839Z,61.83
2022-08-03T00:35:11.352Z,61.79
2022-08-03T00:35:50.607Z,61.39
2022-08-03T00:36:23.171Z,61.52
2022-08-03T00:36:55.109Z,61.70
2022-08-03T00:37:41.489Z,61.67
2022-08-03T00:38:14.009Z,61.67
2022-08-03T00:38:46.287Z,61.60
2022-08-03T00:39:19.656Z,61.66
2022-08-03T00:39:51.585Z,61.61
2022-08-03T00:40:23.659Z,61.79
2022-08-03T00:40:56.500Z,61.69
2022-08-03T00:41:28.385Z,61.49
2022-08-03T00:42:06.449Z,61.77
2022-08-03T00:42:55.938Z,61.79
2022-08-03T00:43:27.928Z,61.75
2022-08-03T00:44:00.145Z,61.55
2022-08-03T00:44:32.086Z,61.50
2022-08-03T00:45:04.213Z,61.38
2022-08-03T00:45:39.493Z,61.27
2022-08-03T00:46:11.457Z,61.82
2022-08-03T00:46:43.371Z,61.78
2022-08-03T00:47:15.292Z,61.99
2022-08-03T00:47:47.950Z,62.07
2022-08-03T00:48:33.242Z,62.14
2022-08-03T00:49:06.160Z,62.31
2022-08-03T00:49:41.456Z,62.10
2022-08-03T00:50:14.085Z,62.15
2022-08-03T00:50:46.201Z,62.05
2022-08-03T00:51:23.423Z,62.17
2022-08-03T00:51:55.551Z,62.14
2022-08-03T00:52:27.487Z,62.41
2022-08-03T00:53:00.117Z,62.80
2022-08-03T00:53:32.521Z,62.63
2022-08-03T00:54:04.955Z,62.58
2022-08-03T00:54:40.609Z,62.79
2022-08-03T00:55:12.817Z,62.67
2022-08-03T00:55:45.128Z,62.61
2022-08-03T00:56:17.931Z,62.58
2022-08-03T00:56:59.633Z,62.67
2022-08-03T00:57:33.660Z,62.86
2022-08-03T00:58:06.795Z,62.70
2022-08-03T00:58:38.716Z,62.63
2022-08-03T00:59:10.836Z,62.49
2022-08-03T00:59:46.656Z,62.17
2022-08-03T01:00:22.849Z,61.88
2022-08-03T01:00:54.941Z,61.87
2022-08-03T01:01:30.619Z,61.90
2022-08-03T01:02:04.692Z,61.84
2022-08-03T01:02:37.716Z,61.90
2022-08-03T01:03:12.259Z,61.72
2022-08-03T01:03:44.401Z,61.81
2022-08-03T01:04:16.406Z,61.88
2022-08-03T01:04:48.798Z,61.92
2022-08-03T01:05:21.726Z,62.36
2022-08-03T01:06:38.915Z,62.03
2022-08-03T01:07:20.078Z,61.73
2022-08-03T01:08:01.257Z,61.30
2022-08-03T01:08:56.023Z,61.39
2022-08-03T01:10:10.354Z,61.48
2022-08-03T01:10:57.695Z,61.75
2022-08-03T01:12:00.117Z,61.70
2022-08-03T01:12:52.271Z,61.57
2022-08-03T01:14:02.354Z,61.58
2022-08-03T01:15:02.957Z,61.86
2022-08-03T01:15:51.113Z,61.80
2022-08-03T01:16:52.369Z,62.33
2022-08-03T01:17:40.621Z,62.43
2022-08-03T01:18:27.580Z,62.53
2022-08-03T01:18:59.452Z,62.81
2022-08-03T01:19:36.996Z,62.58
2022-08-03T01:20:11.921Z,62.67
2022-08-03T01:20:55.814Z,62.45
2022-08-03T01:21:49.353Z,62.50
2022-08-03T01:22:36.293Z,62.86
2022-08-03T01:23:23.115Z,63.31
2022-08-03T01:24:18.984Z,63.29
2022-08-03T01:25:02.892Z,63.35
2022-08-03T01:25:37.793Z,63.73
2022-08-03T01:26:28.146Z,63.98
2022-08-03T01:27:03.233Z,64.02
2022-08-03T01:28:08.473Z,64.08
2022-08-03T01:29:10.742Z,64.22
2022-08-03T01:29:54.356Z,63.90
2022-08-03T01:30:31.574Z,63.50
2022-08-03T01:31:10.354Z,63.53
2022-08-03T01:32:53.531Z,63.65
2022-08-03T01:33:01.141Z,64.04
2022-08-03T01:33:43.339Z,63.81
2022-08-03T01:34:17.249Z,63.91
2022-08-03T01:34:59.110Z,64.21
2022-08-03T01:35:43.249Z,64.48
2022-08-03T01:36:19.540Z,64.21
2022-08-03T01:36:54.150Z,64.00
2022-08-03T01:37:32.127Z,64.08
2022-08-03T01:38:08.456Z,64.53
2022-08-03T01:38:54.113Z,64.83
2022-08-03T01:39:29.021Z,64.54
2022-08-03T01:40:04.058Z,64.39
2022-08-03T01:40:39.518Z,64.45
2022-08-03T01:41:15.708Z,64.51
2022-08-03T01:42:00.995Z,64.56
2022-08-03T01:42:34.884Z,64.68
2022-08-03T01:43:09.018Z,64.61
2022-08-03T01:44:27.947Z,64.93
2022-08-03T01:44:43.187Z,64.96
2022-08-03T01:45:18.686Z,65.41
2022-08-03T01:45:52.317Z,66.16
2022-08-03T01:46:26.295Z,66.57
2022-08-03T01:47:00.560Z,66.21
2022-08-03T01:47:33.613Z,66.34
2022-08-03T01:48:07.950Z,66.90
2022-08-03T01:48:43.259Z,66.76
2022-08-03T01:49:16.116Z,66.36
2022-08-03T01:49:50.298Z,66.34
2022-08-03T01:50:27.382Z,66.59
2022-08-03T01:51:00.383Z,66.58
2022-08-03T01:52:02.901Z,66.59
2022-08-03T01:52:27.518Z,66.50
2022-08-03T01:52:59.924Z,66.23
2022-08-03T01:53:33.870Z,66.50
2022-08-03T01:54:09.908Z,66.98
2022-08-03T01:54:44.447Z,67.36
2022-08-03T01:55:20.040Z,66.85
2022-08-03T01:55:55.623Z,66.68
2022-08-03T01:56:30.160Z,66.88
2022-08-03T01:57:03.862Z,67.00
2022-08-03T01:58:05.365Z,66.91
2022-08-03T01:58:32.160Z,67.08
2022-08-03T01:59:05.637Z,66.78
2022-08-03T01:59:39.468Z,66.72
2022-08-03T02:00:12.620Z,66.75
2022-08-03T02:00:45.444Z,66.62
2022-08-03T02:01:19.286Z,66.64
2022-08-03T02:02:31.959Z,66.82
2022-08-03T02:02:44.806Z,66.68
2022-08-03T02:03:18.132Z,66.92
2022-08-03T02:03:56.713Z,67.00
2022-08-03T02:04:35.051Z,66.92
2022-08-03T02:05:10.594Z,66.99
2022-08-03T02:05:45.773Z,66.93
2022-08-03T02:07:00.668Z,67.22
2022-08-03T02:07:14.615Z,67.06
2022-08-03T02:07:48.341Z,67.87
2022-08-03T02:08:21.879Z,67.94
2022-08-03T02:08:55.345Z,67.75
2022-08-03T02:09:30.172Z,67.87
2022-08-03T02:10:06.126Z,67.82
2022-08-03T02:10:41.844Z,67.63
2022-08-03T02:11:13.921Z,67.51
2022-08-03T02:11:47.472Z,67.62
2022-08-03T02:12:21.378Z,68.07
2022-08-03T02:12:54.676Z,68.19
2022-08-03T02:13:27.922Z,68.30
2022-08-03T02:14:03.984Z,68.04
2022-08-03T02:14:37.629Z,67.92
2022-08-03T02:15:11.251Z,67.75
2022-08-03T02:15:47.499Z,68.16
2022-08-03T02:16:21.824Z,68.64
2022-08-03T02:16:55.891Z,68.64
2022-08-03T02:17:39.278Z,68.52
2022-08-03T02:18:13.369Z,68.58
2022-08-03T02:18:47.597Z,68.36
2022-08-03T02:19:20.456Z,68.15
2022-08-03T02:19:53.805Z,68.11
2022-08-03T02:20:28.669Z,68.25
2022-08-03T02:21:05.385Z,68.63
2022-08-03T02:21:56.530Z,68.63
2022-08-03T02:22:34.610Z,69.44
2022-08-03T02:23:07.304Z,70.03
2022-08-03T02:23:40.355Z,69.58
2022-08-03T02:24:12.776Z,69.14
2022-08-03T02:24:49.344Z,68.98
2022-08-03T02:25:23.633Z,68.80
2022-08-03T02:26:02.824Z,68.44
2022-08-03T02:26:37.177Z,68.12
2022-08-03T02:27:23.784Z,67.92
2022-08-03T02:28:01.831Z,67.87
2022-08-03T02:28:38.529Z,67.94
2022-08-03T02:29:16.420Z,67.90
2022-08-03T02:29:51.417Z,67.82
2022-08-03T02:30:31.195Z,68.36
2022-08-03T02:31:05.644Z,68.59
2022-08-03T02:31:38.479Z,68.38
2022-08-03T02:32:16.549Z,68.14
2022-08-03T02:32:56.008Z,67.88
2022-08-03T02:33:39.028Z,68.03
2022-08-03T02:34:14.955Z,68.10
2022-08-03T02:34:50.854Z,68.51
2022-08-03T02:35:26.509Z,69.12
2022-08-03T02:36:01.251Z,69.03
2022-08-03T02:36:37.671Z,68.50
2022-08-03T02:37:11.712Z,68.51
2022-08-03T02:37:52.684Z,68.56
2022-08-03T02:38:31.511Z,68.51
2022-08-03T02:39:05.432Z,68.48
2022-08-03T02:39:40.873Z,68.29
2022-08-03T02:40:13.987Z,68.46
2022-08-03T02:40:47.082Z,68.54
2022-08-03T02:41:30.799Z,68.42
2022-08-03T02:42:03.226Z,67.83
2022-08-03T02:42:38.208Z,67.85
2022-08-03T02:43:17.686Z,68.04
2022-08-03T02:44:05.699Z,67.91
2022-08-03T02:44:41.603Z,68.04
2022-08-03T02:45:15.865Z,68.20
2022-08-03T02:45:50.026Z,68.02
2022-08-03T02:46:28.508Z,68.10
2022-08-03T02:47:09.785Z,68.24
2022-08-03T02:47:53.433Z,68.49
2022-08-03T02:48:30.706Z,68.56
2022-08-03T02:49:42.138Z,68.18
2022-08-03T02:50:01.872Z,68.34
2022-08-03T02:50:35.221Z,69.26
2022-08-03T02:51:07.941Z,69.52
2022-08-03T02:51:41.583Z,70.49
2022-08-03T02:52:15.748Z,70.34
2022-08-03T02:52:51.073Z,70.11
2022-08-03T02:53:24.668Z,69.57
2022-08-03T02:54:00.647Z,69.28
2022-08-03T02:54:34.803Z,69.45
2022-08-03T02:55:10.525Z,69.59
2022-08-03T02:55:43.328Z,69.69
2022-08-03T02:56:19.439Z,69.81
2022-08-03T02:56:53.671Z,69.63
2022-08-03T02:57:28.054Z,69.41
2022-08-03T02:58:01.586Z,69.33
2022-08-03T02:58:34.699Z,69.20
2022-08-03T02:59:08.495Z,69.09
2022-08-03T02:59:42.655Z,69.04
2022-08-03T03:00:19.641Z,68.89
2022-08-03T03:01:02.433Z,68.86
2022-08-03T03:01:34.402Z,69.29
2022-08-03T03:02:07.131Z,69.48
2022-08-03T03:02:43.909Z,69.26
2022-08-03T03:03:17.472Z,69.09
2022-08-03T03:03:53.851Z,68.92
2022-08-03T03:04:33.008Z,69.14
2022-08-03T03:05:56.803Z,69.34
2022-08-03T03:05:59.845Z,69.56
2022-08-03T03:06:33.063Z,69.82
2022-08-03T03:07:05.611Z,69.92
2022-08-03T03:07:52.276Z,69.87
2022-08-03T03:08:28.736Z,70.31
2022-08-03T03:09:01.645Z,70.37
2022-08-03T03:09:41.975Z,69.94
2022-08-03T03:10:15.421Z,69.60
2022-08-03T03:10:48.993Z,69.20
2022-08-03T03:11:26.733Z,69.34
2022-08-03T03:11:59.339Z,69.08
2022-08-03T03:12:32.088Z,68.85
2022-08-03T03:13:04.162Z,69.09
2022-08-03T03:13:37.204Z,69.45
2022-08-03T03:14:12.424Z,69.97
2022-08-03T03:14:44.439Z,70.09
2022-08-03T03:15:16.491Z,69.65
2022-08-03T03:15:49.812Z,69.76
2022-08-03T03:16:22.591Z,70.05
2022-08-03T03:16:57.989Z,70.20
2022-08-03T03:17:31.736Z,70.15
2022-08-03T03:18:05.429Z,70.23
2022-08-03T03:18:38.227Z,70.23
2022-08-03T03:19:12.749Z,69.91
2022-08-03T03:19:46.065Z,69.63
2022-08-03T03:20:26.238Z,70.07
2022-08-03T03:21:04.281Z,70.82
2022-08-03T03:21:37.975Z,71.45
2022-08-03T03:22:11.540Z,71.03
2022-08-03T03:22:45.196Z,70.46
2022-08-03T03:23:17.931Z,70.15
2022-08-03T03:23:51.951Z,70.02
2022-08-03T03:24:23.986Z,69.92
2022-08-03T03:24:56.431Z,70.01
2022-08-03T03:25:33.934Z,70.39
2022-08-03T03:26:06.702Z,70.37
2022-08-03T03:26:42.425Z,70.28
2022-08-03T03:27:16.645Z,69.87
2022-08-03T03:27:49.595Z,69.44
2022-08-03T03:28:25.076Z,69.71
2022-08-03T03:28:57.203Z,70.11
2022-08-03T03:29:29.652Z,70.16
2022-08-03T03:30:02.630Z,70.17
2022-08-03T03:30:35.013Z,69.78
2022-08-03T03:31:07.881Z,69.70
2022-08-03T03:31:40.451Z,69.89
2022-08-03T03:32:12.469Z,69.95
2022-08-03T03:32:44.788Z,70.14
2022-08-03T03:33:17.715Z,70.27
2022-08-03T03:33:50.058Z,70.80
2022-08-03T03:34:22.436Z,70.56
2022-08-03T03:34:57.010Z,70.49
2022-08-03T03:35:29.342Z,70.49
2022-08-03T03:36:01.745Z,70.60
2022-08-03T03:36:33.781Z,70.59
2022-08-03T03:37:06.078Z,70.91
2022-08-03T03:37:38.125Z,71.48
2022-08-03T03:38:10.505Z,71.24
2022-08-03T03:38:42.499Z,71.08
2022-08-03T03:39:15.590Z,70.87
2022-08-03T03:39:48.120Z,71.22
2022-08-03T03:40:21.771Z,71.32
2022-08-03T03:40:55.427Z,72.09
2022-08-03T03:41:27.602Z,72.20
2022-08-03T03:42:06.004Z,72.40
2022-08-03T03:42:38.499Z,72.24
2022-08-03T03:43:12.283Z,72.20
2022-08-03T03:43:44.433Z,72.58
2022-08-03T03:44:16.573Z,72.47
2022-08-03T03:44:48.866Z,71.96
2022-08-03T03:45:21.990Z,71.53
2022-08-03T03:45:55.309Z,70.93
2022-08-03T03:46:27.338Z,70.87
2022-08-03T03:46:59.309Z,71.23
2022-08-03T03:47:32.806Z,71.37
2022-08-03T03:48:05.963Z,71.40
2022-08-03T03:48:39.391Z,71.05
2022-08-03T03:49:12.919Z,70.68
2022-08-03T03:49:46.063Z,70.49
2022-08-03T03:50:19.133Z,70.56
2022-08-03T03:50:51.335Z,70.75
2022-08-03T03:51:23.318Z,70.48
2022-08-03T03:51:56.855Z,70.62
2022-08-03T03:52:28.857Z,70.83
2022-08-03T03:53:02.049Z,70.91
2022-08-03T03:53:33.958Z,70.66
2022-08-03T03:54:07.215Z,70.39
2022-08-03T03:54:43.381Z,70.15
2022-08-03T03:55:19.034Z,70.04
2022-08-03T03:55:59.518Z,70.37
2022-08-03T03:56:34.211Z,71.18
2022-08-03T03:57:06.125Z,71.04
2022-08-03T03:57:38.041Z,70.76
2022-08-03T03:58:10.012Z,70.51
2022-08-03T03:58:41.975Z,70.34
2022-08-03T03:59:14.244Z,70.14
2022-08-03T03:59:46.144Z,69.99
2022-08-03T04:00:19.499Z,70.32
2022-08-03T04:00:53.944Z,70.49
2022-08-03T04:01:27.414Z,70.45
2022-08-03T04:01:59.835Z,70.26
2022-08-03T04:02:31.742Z,70.18
2022-08-03T04:03:03.757Z,70.02
2022-08-03T04:03:35.943Z,70.02
2022-08-03T04:04:26.649Z,69.93
2022-08-03T04:05:16.980Z,69.95
2022-08-03T04:06:08.084Z,69.84
2022-08-03T04:06:59.061Z,69.46
2022-08-03T04:08:05.069Z,69.92
2022-08-03T04:08:55.582Z,70.16
2022-08-03T04:09:45.994Z,70.02
2022-08-03T04:10:40.819Z,70.24
2022-08-03T04:11:29.124Z,70.09
2022-08-03T04:12:04.615Z,69.82
2022-08-03T04:12:37.606Z,70.00
2022-08-03T04:13:22.985Z,70.04
2022-08-03T04:14:10.951Z,70.38
2022-08-03T04:14:44.057Z,70.13
2022-08-03T04:15:18.223Z,70.14
2022-08-03T04:15:50.837Z,70.17
2022-08-03T04:16:26.702Z,69.94
2022-08-03T04:17:02.560Z,69.68
2022-08-03T04:17:36.317Z,70.25
2022-08-03T04:18:14.106Z,70.70
2022-08-03T04:18:50.491Z,70.74
2022-08-03T04:19:31.522Z,70.48
2022-08-03T04:20:04.337Z,70.51
2022-08-03T04:20:38.881Z,70.42
2022-08-03T04:21:13.564Z,70.43
2022-08-03T04:21:49.980Z,70.40
2022-08-03T04:22:26.968Z,70.37
2022-08-03T04:23:00.701Z,71.07
2022-08-03T04:23:36.018Z,71.24
2022-08-03T04:24:11.767Z,71.16
2022-08-03T04:24:48.645Z,71.33
2022-08-03T04:25:23.547Z,71.13
2022-08-03T04:25:56.552Z,70.87
2022-08-03T04:26:32.950Z,70.58
2022-08-03T04:27:08.743Z,71.00
2022-08-03T04:27:42.518Z,71.50
2022-08-03T04:28:30.636Z,71.25
2022-08-03T04:29:06.126Z,71.29
2022-08-03T04:29:44.759Z,71.31
2022-08-03T04:30:20.915Z,71.57
2022-08-03T04:30:53.800Z,71.86
2022-08-03T04:31:27.308Z,71.43
2022-08-03T04:32:01.051Z,70.95
2022-08-03T04:32:37.263Z,70.76
2022-08-03T04:33:09.323Z,70.97
2022-08-03T04:33:43.838Z,70.87
2022-08-03T04:34:16.534Z,71.23
2022-08-03T04:34:48.666Z,71.22
2022-08-03T04:35:20.959Z,71.14
2022-08-03T04:36:22.317Z,71.15
2022-08-03T04:37:01.585Z,70.41
2022-08-03T04:37:40.135Z,70.38
2022-08-03T04:38:14.478Z,70.43
2022-08-03T04:39:01.724Z,70.16
2022-08-03T04:39:34.539Z,69.82
2022-08-03T04:40:10.638Z,70.04
2022-08-03T04:40:44.451Z,70.25
2022-08-03T04:41:17.831Z,70.21
2022-08-03T04:42:02.226Z,69.82
2022-08-03T04:42:42.124Z,69.75
2022-08-03T04:43:16.806Z,69.49
2022-08-03T04:43:51.838Z,69.51
2022-08-03T04:44:28.430Z,69.32
2022-08-03T04:45:03.667Z,69.17
2022-08-03T04:45:36.702Z,68.67
2022-08-03T04:46:10.360Z,68.53
2022-08-03T04:46:46.730Z,68.32
2022-08-03T04:47:25.199Z,67.93
2022-08-03T04:47:58.251Z,67.87
2022-08-03T04:48:30.479Z,67.92
2022-08-03T04:49:03.381Z,67.72
2022-08-03T04:49:37.931Z,67.69
2022-08-03T04:50:13.546Z,67.46
2022-08-03T04:50:48.120Z,66.91
2022-08-03T04:51:20.364Z,66.89
2022-08-03T04:51:53.283Z,66.78
2022-08-03T04:52:25.416Z,66.83
2022-08-03T04:52:57.324Z,67.06
2022-08-03T04:53:29.289Z,66.94
2022-08-03T04:54:02.148Z,66.88
2022-08-03T04:54:50.004Z,66.80
2022-08-03T04:55:40.705Z,66.60
2022-08-03T04:56:12.678Z,66.60
2022-08-03T04:56:44.815Z,66.58
2022-08-03T04:57:22.347Z,66.42
2022-08-03T04:57:55.910Z,66.35
2022-08-03T04:58:28.487Z,66.33
2022-08-03T04:59:00.497Z,65.93
2022-08-03T04:59:32.419Z,65.81
2022-08-03T05:00:06.481Z,65.73
2022-08-03T05:00:38.654Z,65.85
2022-08-03T05:01:11.010Z,66.25
2022-08-03T05:01:43.143Z,66.14
2022-08-03T05:02:16.196Z,65.91
2022-08-03T05:02:48.332Z,65.87
2022-08-03T05:03:24.325Z,65.76
2022-08-03T05:03:57.158Z,65.81
2022-08-03T05:04:29.105Z,65.72
2022-08-03T05:05:01.100Z,65.60
2022-08-03T05:05:50.225Z,65.50
2022-08-03T05:06:25.007Z,65.60
2022-08-03T05:06:57.187Z,65.65
2022-08-03T05:07:36.404Z,65.52
2022-08-03T05:08:11.048Z,65.37
2022-08-03T05:08:46.047Z,64.91
2022-08-03T05:09:33.475Z,64.73
2022-08-03T05:10:15.706Z,64.53
2022-08-03T05:10:48.633Z,64.48
2022-08-03T05:11:21.075Z,64.26
2022-08-03T05:11:54.629Z,64.14
2022-08-03T05:12:30.638Z,64.00
2022-08-03T05:13:05.262Z,63.58
2022-08-03T05:13:37.157Z,63.82
2022-08-03T05:14:09.168Z,64.00
2022-08-03T05:14:41.267Z,64.24
2022-08-03T05:15:13.706Z,64.13
2022-08-03T05:15:45.744Z,64.01
2022-08-03T05:16:18.033Z,64.07
2022-08-03T05:16:49.990Z,63.99
2022-08-03T05:17:23.292Z,62.55
2022-08-03T05:17:55.292Z,62.33
2022-08-03T05:18:27.230Z,62.18
2022-08-03T05:18:59.136Z,62.54
2022-08-03T05:19:31.962Z,62.76
2022-08-03T05:20:04.656Z,63.07
2022-08-03T05:20:36.577Z,62.76
2022-08-03T05:21:09.787Z,62.51
2022-08-03T05:21:52.858Z,61.96
2022-08-03T05:22:25.039Z,61.68
2022-08-03T05:22:57.776Z,61.49
2022-08-03T05:23:29.716Z,61.32
2022-08-03T05:24:01.675Z,61.11
2022-08-03T05:24:33.604Z,61.06
2022-08-03T05:25:05.861Z,61.38
2022-08-03T05:25:37.752Z,61.17
2022-08-03T05:26:14.246Z,61.26
2022-08-03T05:26:46.494Z,60.72
2022-08-03T05:27:21.193Z,60.51
2022-08-03T05:27:53.211Z,60.29
2022-08-03T05:28:25.136Z,60.62
2022-08-03T05:28:57.075Z,60.83
2022-08-03T05:29:29.013Z,60.86
2022-08-03T05:30:32.321Z,60.65
2022-08-03T05:30:54.195Z,60.38
2022-08-03T05:31:26.118Z,59.63
2022-08-03T05:31:58.547Z,59.41
2022-08-03T05:32:30.525Z,59.26
2022-08-03T05:33:03.751Z,59.14
2022-08-03T05:33:35.743Z,59.30
2022-08-03T05:34:07.944Z,59.07
2022-08-03T05:34:39.915Z,59.02
2022-08-03T05:36:01.319Z,59.14
2022-08-03T05:36:04.631Z,59.60
2022-08-03T05:36:36.559Z,59.20
2022-08-03T05:37:09.918Z,58.57
2022-08-03T05:37:42.367Z,58.74
2022-08-03T05:38:28.706Z,58.81
2022-08-03T05:39:05.119Z,58.81
2022-08-03T05:39:38.057Z,58.89
2022-08-03T05:40:11.115Z,59.06
2022-08-03T05:40:56.900Z,59.13
2022-08-03T05:41:36.808Z,59.82
2022-08-03T05:42:10.659Z,59.06
2022-08-03T05:42:42.548Z,58.56
2022-08-03T05:43:14.541Z,58.71
2022-08-03T05:43:46.803Z,59.67
2022-08-03T05:44:18.803Z,58.64
2022-08-03T05:44:50.998Z,58.75
2022-08-03T05:45:28.093Z,58.37
2022-08-03T05:46:12.037Z,58.14
2022-08-03T05:46:44.881Z,57.35
2022-08-03T05:47:17.137Z,56.32
2022-08-03T05:47:50.969Z,56.47
2022-08-03T05:48:22.846Z,56.36
2022-08-03T05:48:54.835Z,55.99
2022-08-03T05:49:26.876Z,56.38
2022-08-03T05:49:58.990Z,56.38
2022-08-03T05:50:30.928Z,56.06
2022-08-03T05:51:04.775Z,56.19
2022-08-03T05:51:37.260Z,56.06
2022-08-03T05:52:10.649Z,55.98
2022-08-03T05:52:46.533Z,55.90
2022-08-03T05:53:18.980Z,56.06
2022-08-03T05:53:50.994Z,56.15
2022-08-03T05:54:22.941Z,55.97
2022-08-03T05:55:15.098Z,55.65
2022-08-03T05:55:48.588Z,55.36
2022-08-03T05:56:27.477Z,55.36
2022-08-03T05:56:59.401Z,55.29
2022-08-03T05:57:31.330Z,55.02
2022-08-03T05:58:03.923Z,54.47
2022-08-03T05:58:35.848Z,54.21
2022-08-03T05:59:35.761Z,53.98
2022-08-03T05:59:59.697Z,52.88
2022-08-03T06:00:31.895Z,52.95
2022-08-03T06:01:04.277Z,52.58
2022-08-03T06:01:36.919Z,52.22
2022-08-03T06:02:09.050Z,52.28
2022-08-03T06:02:41.540Z,52.05
2022-08-03T06:03:15.175Z,52.72
2022-08-03T06:03:47.666Z,53.44
2022-08-03T06:04:19.828Z,53.12
2022-08-03T06:04:52.061Z,51.82
2022-08-03T06:05:28.260Z,51.53
2022-08-03T06:06:00.938Z,51.42
2022-08-03T06:06:33.813Z,51.13
2022-08-03T06:07:05.756Z,51.34
2022-08-03T06:07:37.934Z,51.45
2022-08-03T06:08:09.825Z,51.36
2022-08-03T06:08:48.986Z,51.26
2022-08-03T06:09:20.969Z,50.60
2022-08-03T06:10:35.481Z,50.22
2022-08-03T06:10:44.975Z,50.04
2022-08-03T06:11:17.415Z,50.17
2022-08-03T06:11:49.727Z,49.98
2022-08-03T06:12:21.725Z,50.05
2022-08-03T06:12:53.700Z,49.63
2022-08-03T06:13:25.598Z,50.11
2022-08-03T06:13:57.566Z,49.62
2022-08-03T06:14:29.522Z,49.12
2022-08-03T06:15:02.940Z,49.01
2022-08-03T06:15:35.510Z,49.14
2022-08-03T06:16:07.616Z,49.30
2022-08-03T06:16:39.644Z,49.75
2022-08-03T06:17:11.890Z,49.40
2022-08-03T06:17:51.429Z,49.10
2022-08-03T06:18:24.721Z,49.10
2022-08-03T06:18:56.698Z,48.89
2022-08-03T06:19:28.622Z,48.63
2022-08-03T06:20:00.681Z,48.69
2022-08-03T06:20:32.645Z,48.79
2022-08-03T06:21:11.075Z,48.65
2022-08-03T06:21:47.713Z,48.53
2022-08-03T06:22:20.251Z,48.61
2022-08-03T06:23:01.202Z,48.50
2022-08-03T06:23:52.933Z,49.20
2022-08-03T06:24:25.364Z,48.94
2022-08-03T06:24:58.648Z,48.71
2022-08-03T06:25:36.323Z,48.51
2022-08-03T06:26:08.220Z,48.82
2022-08-03T06:26:40.197Z,48.82
2022-08-03T06:27:12.377Z,48.67
2022-08-03T06:27:45.568Z,48.13
2022-08-03T06:28:51.792Z,47.91
2022-08-03T06:29:11.596Z,48.07
2022-08-03T06:29:43.583Z,47.63
2022-08-03T06:30:21.050Z,47.58
2022-08-03T06:30:53.454Z,47.82
2022-08-03T06:31:33.466Z,48.08
2022-08-03T06:32:06.134Z,47.82
2022-08-03T06:32:39.379Z,47.33
2022-08-03T06:33:11.739Z,47.41
2022-08-03T06:34:31.052Z,47.30
2022-08-03T06:34:35.860Z,47.33
2022-08-03T06:35:09.532Z,47.85
2022-08-03T06:35:42.480Z,48.33
2022-08-03T06:36:17.119Z,48.37
2022-08-03T06:36:52.275Z,48.02
2022-08-03T06:37:24.645Z,48.38
2022-08-03T06:37:57.074Z,47.42
2022-08-03T06:38:29.297Z,46.94
2022-08-03T06:39:02.247Z,47.09
2022-08-03T06:39:34.284Z,47.48
2022-08-03T06:40:06.625Z,48.43
2022-08-03T06:40:40.166Z,48.24
2022-08-03T06:41:12.088Z,48.06
2022-08-03T06:41:44.847Z,47.13
2022-08-03T06:42:17.184Z,46.94
2022-08-03T06:42:49.317Z,46.68
2022-08-03T06:43:22.307Z,46.73
2022-08-03T06:44:03.410Z,46.84
2022-08-03T06:44:37.643Z,46.91
2022-08-03T06:45:10.664Z,46.74
2022-08-03T06:45:42.635Z,46.84
2022-08-03T06:46:19.973Z,47.00
2022-08-03T06:46:52.517Z,46.79
2022-08-03T06:47:24.446Z,46.24
2022-08-03T06:48:06.454Z,46.50
2022-08-03T06:48:38.357Z,46.70
2022-08-03T06:49:10.671Z,46.92
2022-08-03T06:49:42.824Z,46.36
2022-08-03T06:50:16.928Z,46.37
2022-08-03T06:50:50.458Z,46.00
2022-08-03T06:52:03.050Z,46.03
2022-08-03T06:52:15.585Z,46.10
2022-08-03T06:53:09.211Z,46.99
2022-08-03T06:53:50.382Z,47.11
2022-08-03T06:54:24.311Z,47.16
2022-08-03T06:54:56.256Z,47.26
2022-08-03T06:55:28.442Z,47.75
2022-08-03T06:56:00.439Z,47.39
2022-08-03T06:56:32.352Z,47.40
2022-08-03T06:57:04.911Z,47.38
2022-08-03T06:57:37.010Z,47.71
2022-08-03T06:58:08.938Z,47.52
2022-08-03T06:58:41.086Z,47.22
2022-08-03T07:00:07.737Z,47.19
2022-08-03T07:00:11.874Z,47.35
2022-08-03T07:00:44.660Z,47.49
2022-08-03T07:01:18.904Z,47.59
2022-08-03T07:01:51.002Z,47.71
2022-08-03T07:02:23.392Z,48.16
2022-08-03T07:02:58.296Z,47.64
2022-08-03T07:03:30.572Z,48.28
2022-08-03T07:04:02.471Z,48.27
2022-08-03T07:04:34.502Z,47.96
2022-08-03T07:05:07.943Z,47.65
2022-08-03T07:05:39.892Z,47.18
2022-08-03T07:06:11.869Z,47.34
2022-08-03T07:06:43.792Z,47.69
2022-08-03T07:07:15.805Z,47.98
2022-08-03T07:07:47.735Z,48.53
2022-08-03T07:08:19.986Z,48.22
2022-08-03T07:09:06.140Z,48.19
2022-08-03T07:09:38.136Z,48.23
2022-08-03T07:10:11.693Z,48.02
2022-08-03T07:10:44.625Z,48.01
2022-08-03T07:11:16.909Z,48.03
2022-08-03T07:11:48.856Z,47.81
2022-08-03T07:12:20.810Z,47.51
2022-08-03T07:12:56.775Z,47.69
2022-08-03T07:13:29.068Z,47.69
2022-08-03T07:14:01.026Z,47.30
2022-08-03T07:14:34.063Z,46.88
2022-08-03T07:15:06.534Z,46.91
2022-08-03T07:15:55.643Z,47.20
2022-08-03T07:16:28.221Z,47.04
2022-08-03T07:17:00.124Z,46.98
2022-08-03T07:17:34.343Z,46.82
2022-08-03T07:18:06.983Z,46.68
2022-08-03T07:18:40.057Z,46.51
2022-08-03T07:19:12.346Z,46.53
2022-08-03T07:19:44.631Z,46.74
2022-08-03T07:20:18.294Z,46.06
2022-08-03T07:20:50.589Z,46.18
2022-08-03T07:21:22.572Z,45.75
2022-08-03T07:21:54.782Z,45.52
2022-08-03T07:22:32.319Z,45.63
2022-08-03T07:23:04.287Z,45.57
2022-08-03T07:23:36.324Z,45.05
2022-08-03T07:24:09.274Z,44.54
2022-08-03T07:24:42.113Z,44.73
2022-08-03T07:25:14.119Z,45.02
2022-08-03T07:25:46.159Z,44.73
2022-08-03T07:26:18.428Z,44.70
2022-08-03T07:26:50.369Z,45.02
2022-08-03T07:27:22.546Z,44.35
2022-08-03T07:27:54.514Z,44.48
2022-08-03T07:28:28.379Z,44.70
2022-08-03T07:29:02.061Z,44.75
2022-08-03T07:29:37.790Z,44.77
2022-08-03T07:30:10.396Z,44.62
2022-08-03T07:30:42.304Z,44.79
2022-08-03T07:31:14.256Z,44.52
2022-08-03T07:31:46.564Z,44.38
2022-08-03T07:32:18.736Z,44.89
2022-08-03T07:32:50.961Z,45.62
2022-08-03T07:33:23.107Z,45.66
2022-08-03T07:33:55.088Z,45.00
2022-08-03T07:34:27.097Z,45.08
2022-08-03T07:35:01.178Z,44.86
2022-08-03T07:35:34.255Z,44.31
2022-08-03T07:36:06.243Z,44.86
2022-08-03T07:36:38.240Z,44.53
2022-08-03T07:37:10.477Z,44.23
2022-08-03T07:37:42.726Z,43.87
2022-08-03T07:38:26.287Z,43.73
2022-08-03T07:38:58.406Z,43.38
2022-08-03T07:39:30.384Z,43.40